Empire, Colorado
Current Conditions -  °F | °C
As of 7:35 AM on Thursday 27 Nov 2014 (Local Time) from KBDU Reporting Station
Clear Clear  
Wind Chill: 54°   Ceiling: Unl
Heat Index: 54°   Visibility: 10mi
Dew Point: 14°   Wind: 8mph
Humidity: 21%   Direction: 250°WSW
Pressure: 30.2"   Gusts: NA
Location:  39.76°N, 105.68°W
Report Text: KBDU 271435Z AUTO 25007KT 10SM CLR 12/M10 A3020 RMK AO2
Loading
Personal Weather Stations






























Interactive Weather Map New forecast layout! Learn more

10-Day Weather Forecast

Advertisements
Track Severe Weather on mobile